createdAt,value
2023-03-02T00:01:13.567Z,89.01
2023-03-02T00:04:22.136Z,89.22
2023-03-02T00:07:29.806Z,89.32
2023-03-02T00:10:38.196Z,89.54
2023-03-02T00:13:45.919Z,89.58
2023-03-02T00:16:53.604Z,89.47
2023-03-02T00:20:01.603Z,89.62
2023-03-02T00:23:09.288Z,90.36
2023-03-02T00:26:17.190Z,90.46
2023-03-02T00:29:25.458Z,90.56
2023-03-02T00:32:32.897Z,90.78
2023-03-02T00:35:40.797Z,90.78
2023-03-02T00:38:48.936Z,90.88
2023-03-02T00:41:56.276Z,90.88
2023-03-02T00:45:04.361Z,90.78
2023-03-02T00:48:12.588Z,91.09
2023-03-02T00:51:20.080Z,91.77
2023-03-02T00:54:28.234Z,92.29
2023-03-02T00:57:36.568Z,92.35
2023-03-02T01:00:43.911Z,92.50
2023-03-02T01:03:52.003Z,92.29
2023-03-02T01:06:59.667Z,92.40
2023-03-02T01:10:08.032Z,92.46
2023-03-02T01:13:15.627Z,92.25
2023-03-02T01:16:23.205Z,91.83
2023-03-02T01:19:31.522Z,91.66
2023-03-02T01:22:38.863Z,91.77
2023-03-02T01:25:46.400Z,91.35
2023-03-02T01:28:53.840Z,92.02
2023-03-02T01:32:00.983Z,92.23
2023-03-02T01:35:08.767Z,92.40
2023-03-02T01:38:16.565Z,92.29
2023-03-02T01:41:23.652Z,92.08
2023-03-02T01:44:31.277Z,91.87
2023-03-02T01:47:39.047Z,91.77
2023-03-02T01:50:46.002Z,91.55
2023-03-02T01:53:55.204Z,91.55
2023-03-02T01:57:02.771Z,91.66
2023-03-02T02:00:10.017Z,91.87
2023-03-02T02:03:17.317Z,92.08
2023-03-02T02:06:24.735Z,92.29
2023-03-02T02:09:32.145Z,92.29
2023-03-02T02:12:39.170Z,92.40
2023-03-02T02:15:46.979Z,92.61
2023-03-02T02:18:54.345Z,92.92
2023-03-02T02:22:01.431Z,92.92
2023-03-02T02:25:09.088Z,93.03
2023-03-02T02:28:17.050Z,93.07
2023-03-02T02:31:24.097Z,93.18
2023-03-02T02:34:31.800Z,93.28
2023-03-02T02:37:38.819Z,93.38
2023-03-02T02:40:46.714Z,93.70
2023-03-02T02:43:54.563Z,94.02
2023-03-02T02:47:02.089Z,93.76
2023-03-02T02:50:09.661Z,93.45
2023-03-02T02:53:17.128Z,93.45
2023-03-02T02:56:25.172Z,93.76
2023-03-02T02:59:32.504Z,94.08
2023-03-02T03:02:40.061Z,94.08
2023-03-02T03:05:47.870Z,93.55
2023-03-02T03:08:54.870Z,93.45
2023-03-02T03:12:02.813Z,93.55
2023-03-02T03:15:10.645Z,93.76
2023-03-02T03:18:17.661Z,94.18
2023-03-02T03:21:25.459Z,94.60
2023-03-02T03:24:33.393Z,94.40
2023-03-02T03:27:40.458Z,94.71
2023-03-02T03:30:48.515Z,95.07
2023-03-02T03:33:55.832Z,95.45
2023-03-02T03:37:03.168Z,95.87
2023-03-02T03:40:11.102Z,96.08
2023-03-02T03:43:18.365Z,96.45
2023-03-02T03:46:25.823Z,96.77
2023-03-02T03:49:33.590Z,97.09
2023-03-02T03:52:41.196Z,97.61
2023-03-02T03:55:48.538Z,97.99
2023-03-02T03:58:55.860Z,98.20
2023-03-02T04:02:03.830Z,98.41
2023-03-02T04:05:11.247Z,98.72
2023-03-02T04:08:18.296Z,98.83
2023-03-02T04:11:26.186Z,98.94
2023-03-02T04:14:33.614Z,99.25
2023-03-02T04:17:40.896Z,99.36
2023-03-02T04:20:48.528Z,99.57
2023-03-02T04:23:55.576Z,99.78
2023-03-02T04:27:03.397Z,99.88
2023-03-02T04:30:10.702Z,99.99
2023-03-02T04:33:17.828Z,99.99
2023-03-02T04:36:25.598Z,99.99
2023-03-02T04:39:33.329Z,99.99
2023-03-02T04:42:40.871Z,99.99
2023-03-02T04:45:48.304Z,99.99
2023-03-02T04:48:56.060Z,99.99
2023-03-02T04:52:03.408Z,99.99
2023-03-02T04:55:10.963Z,99.99
2023-03-02T04:58:18.257Z,99.99
2023-03-02T05:01:26.128Z,99.99
2023-03-02T05:04:33.854Z,99.99
2023-03-02T05:07:41.505Z,99.99
2023-03-02T05:10:49.699Z,99.99
2023-03-02T05:13:57.075Z,99.99
2023-03-02T05:17:04.682Z,99.99
2023-03-02T05:20:12.279Z,99.99
2023-03-02T05:23:19.630Z,99.99
2023-03-02T05:26:26.959Z,99.99
2023-03-02T05:29:34.594Z,99.99
2023-03-02T05:32:41.538Z,99.99
2023-03-02T05:35:49.444Z,99.99
2023-03-02T05:38:57.184Z,99.99
2023-03-02T05:42:04.202Z,99.99
2023-03-02T05:45:11.968Z,99.99
2023-03-02T05:48:19.634Z,99.99
2023-03-02T05:51:27.176Z,99.99
2023-03-02T05:54:35.189Z,99.99
2023-03-02T05:57:42.748Z,99.99
2023-03-02T06:00:50.566Z,99.99
2023-03-02T06:03:58.291Z,99.99
2023-03-02T06:07:05.690Z,99.99
2023-03-02T06:10:13.008Z,99.99
2023-03-02T06:13:21.017Z,99.99
2023-03-02T06:16:28.449Z,99.99
2023-03-02T06:19:35.757Z,99.99
2023-03-02T06:22:43.325Z,99.99
2023-03-02T06:25:51.195Z,99.99
2023-03-02T06:28:58.856Z,99.99
2023-03-02T06:32:06.145Z,99.99
2023-03-02T06:35:13.846Z,99.99
2023-03-02T06:38:21.051Z,99.99
2023-03-02T06:41:28.481Z,99.99
2023-03-02T06:44:36.213Z,99.99
2023-03-02T06:47:43.638Z,99.99
2023-03-02T06:50:50.879Z,99.99
2023-03-02T06:53:58.729Z,99.99
2023-03-02T06:57:05.803Z,99.99
2023-03-02T07:00:13.504Z,99.99
2023-03-02T07:03:20.929Z,99.99
2023-03-02T07:06:27.919Z,99.99
2023-03-02T07:09:35.642Z,99.99
2023-03-02T07:12:43.318Z,99.99
2023-03-02T07:15:50.405Z,99.99
2023-03-02T07:18:58.218Z,99.99
2023-03-02T07:22:05.792Z,99.99
2023-03-02T07:25:12.973Z,99.99
2023-03-02T07:28:20.495Z,99.99
2023-03-02T07:31:27.958Z,99.99
2023-03-02T07:34:35.354Z,99.99
2023-03-02T07:37:42.704Z,99.99
2023-03-02T07:40:50.192Z,99.99
2023-03-02T07:43:57.509Z,99.99
2023-03-02T07:47:04.614Z,99.99
2023-03-02T07:50:12.449Z,99.99
2023-03-02T07:53:20.178Z,99.99
2023-03-02T07:56:27.084Z,99.99
2023-03-02T07:59:34.746Z,99.99
2023-03-02T08:02:42.424Z,99.99
2023-03-02T08:05:49.508Z,99.99
2023-03-02T08:08:57.067Z,99.99
2023-03-02T08:12:04.772Z,99.99
2023-03-02T08:15:11.720Z,99.99
2023-03-02T08:18:19.318Z,99.99
2023-03-02T08:21:26.550Z,99.99
2023-03-02T08:24:33.861Z,99.99
2023-03-02T08:27:41.709Z,99.99
2023-03-02T08:30:48.870Z,99.99
2023-03-02T08:33:56.245Z,99.99
2023-03-02T08:37:03.802Z,99.99
2023-03-02T08:40:11.067Z,99.99
2023-03-02T08:43:18.553Z,99.99
2023-03-02T08:46:25.948Z,99.99
2023-03-02T08:49:33.429Z,99.99
2023-03-02T08:52:40.712Z,99.99
2023-03-02T08:55:47.904Z,99.99
2023-03-02T08:58:55.559Z,99.99
2023-03-02T09:02:03.091Z,99.99
2023-03-02T09:05:10.402Z,99.99
2023-03-02T09:08:18.366Z,99.99
2023-03-02T09:11:25.782Z,99.99
2023-03-02T09:14:33.064Z,99.99
2023-03-02T09:17:40.540Z,99.99
2023-03-02T09:20:47.509Z,99.99
2023-03-02T09:23:55.224Z,99.99
2023-03-02T09:27:02.731Z,99.99
2023-03-02T09:30:09.778Z,99.99
2023-03-02T09:33:17.547Z,99.99
2023-03-02T09:36:25.278Z,99.99
2023-03-02T09:39:32.265Z,99.99
2023-03-02T09:42:44.136Z,99.99
2023-03-02T09:45:40.959Z,99.99
2023-03-02T09:48:48.386Z,99.83
2023-03-02T09:51:56.167Z,99.41
2023-03-02T09:55:03.408Z,99.79
2023-03-02T09:58:10.682Z,99.43
2023-03-02T10:01:18.269Z,99.22
2023-03-02T10:04:25.807Z,98.86
2023-03-02T10:07:33.132Z,98.13
2023-03-02T10:10:41.162Z,97.30
2023-03-02T10:13:48.867Z,96.13
2023-03-02T10:16:56.234Z,97.13
2023-03-02T10:20:03.517Z,97.03
2023-03-02T10:23:11.470Z,97.44
2023-03-02T10:26:18.617Z,97.40
2023-03-02T10:29:25.948Z,97.35
2023-03-02T10:32:33.638Z,96.69
2023-03-02T10:35:41.693Z,96.16
2023-03-02T10:38:49.181Z,95.75
2023-03-02T10:41:57.106Z,95.81
2023-03-02T10:45:04.183Z,94.98
2023-03-02T10:48:11.835Z,94.70
2023-03-02T10:51:19.331Z,95.29
2023-03-02T10:54:26.173Z,95.35
2023-03-02T10:57:33.832Z,94.93
2023-03-02T11:00:41.231Z,94.68
2023-03-02T11:03:48.484Z,93.95
2023-03-02T11:06:56.118Z,93.85
2023-03-02T11:10:03.645Z,93.12
2023-03-02T11:13:11.167Z,93.60
2023-03-02T11:16:19.021Z,93.70
2023-03-02T11:19:26.357Z,92.29
2023-03-02T11:22:33.690Z,93.37
2023-03-02T11:25:41.324Z,93.83
2023-03-02T11:28:48.870Z,94.31
2023-03-02T11:31:56.929Z,94.51
2023-03-02T11:35:04.184Z,94.57
2023-03-02T11:38:11.978Z,94.59
2023-03-02T11:41:19.507Z,93.18
2023-03-02T11:44:26.863Z,93.80
2023-03-02T11:47:34.808Z,94.28
2023-03-02T11:50:42.005Z,93.55
2023-03-02T11:53:49.542Z,93.14
2023-03-02T11:56:57.203Z,92.93
2023-03-02T12:00:04.547Z,92.93
2023-03-02T12:03:11.897Z,92.51
2023-03-02T12:06:19.314Z,92.41
2023-03-02T12:09:27.105Z,92.99
2023-03-02T12:12:34.405Z,91.80
2023-03-02T12:15:41.803Z,91.60
2023-03-02T12:18:49.721Z,91.14
2023-03-02T12:21:57.050Z,90.00
2023-03-02T12:25:04.501Z,90.52
2023-03-02T12:28:12.195Z,89.94
2023-03-02T12:31:19.518Z,91.12
2023-03-02T12:34:26.812Z,91.60
2023-03-02T12:37:34.527Z,91.60
2023-03-02T12:40:42.245Z,92.28
2023-03-02T12:43:50.140Z,91.66
2023-03-02T12:46:57.715Z,90.62
2023-03-02T12:50:04.946Z,91.33
2023-03-02T12:53:12.207Z,92.05
2023-03-02T12:56:19.479Z,92.63
2023-03-02T12:59:26.717Z,92.53
2023-03-02T13:02:34.112Z,93.12
2023-03-02T13:05:41.352Z,92.07
2023-03-02T13:08:48.987Z,91.80
2023-03-02T13:11:56.371Z,91.91
2023-03-02T13:15:03.926Z,91.18
2023-03-02T13:18:12.270Z,92.05
2023-03-02T13:21:19.329Z,92.84
2023-03-02T13:24:27.017Z,92.53
2023-03-02T13:27:34.606Z,92.86
2023-03-02T13:30:41.943Z,91.83
2023-03-02T13:33:49.770Z,90.58
2023-03-02T13:36:57.017Z,89.89
2023-03-02T13:40:04.385Z,90.52
2023-03-02T13:43:12.466Z,91.08
2023-03-02T13:46:19.782Z,91.14
2023-03-02T13:49:27.147Z,91.14
2023-03-02T13:52:34.149Z,90.62
2023-03-02T13:55:41.897Z,91.20
2023-03-02T13:58:49.694Z,90.17
2023-03-02T14:01:57.508Z,90.17
2023-03-02T14:05:05.058Z,90.69
2023-03-02T14:08:12.307Z,90.69
2023-03-02T14:11:19.704Z,90.10
2023-03-02T14:14:27.561Z,91.03
2023-03-02T14:17:34.790Z,90.58
2023-03-02T14:20:42.159Z,90.31
2023-03-02T14:23:49.813Z,91.14
2023-03-02T14:26:57.783Z,91.24
2023-03-02T14:30:05.295Z,91.74
2023-03-02T14:33:12.857Z,92.61
2023-03-02T14:36:20.737Z,93.14
2023-03-02T14:39:27.755Z,93.91
2023-03-02T14:42:35.463Z,94.22
2023-03-02T14:45:43.313Z,94.26
2023-03-02T14:48:50.239Z,94.89
2023-03-02T14:51:57.680Z,95.25
2023-03-02T14:55:05.403Z,95.66
2023-03-02T14:58:12.422Z,96.18
2023-03-02T15:01:19.858Z,96.39
2023-03-02T15:04:27.004Z,96.24
2023-03-02T15:07:34.421Z,96.14
2023-03-02T15:10:41.896Z,96.24
2023-03-02T15:13:49.167Z,95.76
2023-03-02T15:16:56.501Z,96.18
2023-03-02T15:20:04.345Z,96.18
2023-03-02T15:23:11.637Z,96.18
2023-03-02T15:26:19.200Z,96.64
2023-03-02T15:29:26.867Z,97.06
2023-03-02T15:32:34.587Z,97.27
2023-03-02T15:35:41.886Z,96.95
2023-03-02T15:38:49.129Z,97.16
2023-03-02T15:41:56.981Z,97.27
2023-03-02T15:45:04.403Z,97.20
2023-03-02T15:48:13.340Z,97.72
2023-03-02T15:51:21.278Z,98.04
2023-03-02T15:54:28.352Z,98.25
2023-03-02T15:57:36.383Z,98.35
2023-03-02T16:00:44.307Z,98.56
2023-03-02T16:03:51.644Z,98.87
2023-03-02T16:06:59.047Z,98.77
2023-03-02T16:10:06.799Z,98.92
2023-03-02T16:13:13.763Z,99.13
2023-03-02T16:16:21.672Z,99.23
2023-03-02T16:19:29.133Z,99.59
2023-03-02T16:22:36.661Z,99.59
2023-03-02T16:25:43.989Z,99.90
2023-03-02T16:28:51.245Z,99.99
2023-03-02T16:31:58.718Z,99.99
2023-03-02T16:35:06.512Z,99.99
2023-03-02T16:38:13.776Z,99.99
2023-03-02T16:41:21.521Z,99.99
2023-03-02T16:44:28.815Z,99.99
2023-03-02T16:47:36.189Z,99.99
2023-03-02T16:50:44.249Z,99.99
2023-03-02T16:53:51.844Z,99.99
2023-03-02T16:56:59.139Z,99.99
2023-03-02T17:00:06.852Z,99.99
2023-03-02T17:03:13.902Z,99.99
2023-03-02T17:06:21.543Z,99.99
2023-03-02T17:09:28.929Z,99.99
2023-03-02T17:12:35.834Z,99.99
2023-03-02T17:15:44.228Z,99.99
2023-03-02T17:18:51.262Z,99.99
2023-03-02T17:21:59.353Z,99.99
2023-03-02T17:25:06.404Z,99.99
2023-03-02T17:28:14.524Z,99.99
2023-03-02T17:31:21.949Z,99.99
2023-03-02T17:34:29.490Z,99.99
2023-03-02T17:37:37.156Z,99.99
2023-03-02T17:40:45.343Z,99.99
2023-03-02T17:43:52.430Z,99.99
2023-03-02T17:47:00.593Z,99.99
2023-03-02T17:50:07.759Z,99.99
2023-03-02T17:53:16.156Z,99.99
2023-03-02T17:56:23.813Z,99.99
2023-03-02T17:59:31.322Z,99.99
2023-03-02T18:02:38.865Z,99.99
2023-03-02T18:05:46.543Z,99.99
2023-03-02T18:08:54.081Z,99.99
2023-03-02T18:12:01.527Z,99.99
2023-03-02T18:15:09.456Z,99.99
2023-03-02T18:18:16.839Z,99.99
2023-03-02T18:21:24.407Z,99.99
2023-03-02T18:24:32.347Z,99.99
2023-03-02T18:27:39.971Z,99.99
2023-03-02T18:30:47.072Z,99.99
2023-03-02T18:33:55.021Z,99.99
2023-03-02T18:37:02.131Z,99.99
2023-03-02T18:40:10.120Z,99.99
2023-03-02T18:43:17.757Z,99.99
2023-03-02T18:46:24.824Z,99.99
2023-03-02T18:49:32.175Z,99.99
2023-03-02T18:52:40.202Z,99.99
2023-03-02T18:55:47.524Z,99.99
2023-03-02T18:58:54.832Z,99.99
2023-03-02T19:02:02.068Z,99.99
2023-03-02T19:05:09.484Z,99.99
2023-03-02T19:08:16.866Z,99.99
2023-03-02T19:11:24.202Z,99.99
2023-03-02T19:14:32.127Z,99.99
2023-03-02T19:17:39.441Z,99.99
2023-03-02T19:20:46.972Z,99.99
2023-03-02T19:23:54.363Z,99.99
2023-03-02T19:27:02.774Z,99.99
2023-03-02T19:30:10.374Z,99.99
2023-03-02T19:33:18.546Z,99.99
2023-03-02T19:36:25.585Z,99.99
2023-03-02T19:39:33.144Z,99.99
2023-03-02T19:42:40.800Z,99.99
2023-03-02T19:45:47.901Z,99.99
2023-03-02T19:48:55.303Z,99.99
2023-03-02T19:52:04.302Z,99.99
2023-03-02T19:55:12.522Z,99.99
2023-03-02T19:58:20.389Z,99.99
2023-03-02T20:01:27.916Z,99.99
2023-03-02T20:04:35.386Z,99.99
2023-03-02T20:07:42.936Z,99.99
2023-03-02T20:10:50.375Z,99.99
2023-03-02T20:13:57.886Z,99.99
2023-03-02T20:17:05.425Z,99.99
2023-03-02T20:20:12.566Z,99.99
2023-03-02T20:23:19.855Z,99.99
2023-03-02T20:26:26.839Z,99.99
2023-03-02T20:29:34.521Z,99.99
2023-03-02T20:32:42.053Z,99.99
2023-03-02T20:35:49.203Z,99.99
2023-03-02T20:38:56.930Z,99.99
2023-03-02T20:42:04.479Z,99.99
2023-03-02T20:45:11.716Z,99.99
2023-03-02T20:48:19.370Z,99.99
2023-03-02T20:51:26.668Z,99.99
2023-03-02T20:54:34.017Z,99.99
2023-03-02T20:57:41.753Z,99.99
2023-03-02T21:00:48.834Z,99.99
2023-03-02T21:03:56.548Z,99.99
2023-03-02T21:07:05.005Z,99.99
2023-03-02T21:10:12.468Z,99.99
2023-03-02T21:13:20.205Z,99.99
2023-03-02T21:16:28.230Z,99.99
2023-03-02T21:19:35.523Z,99.99
2023-03-02T21:22:43.394Z,99.99
2023-03-02T21:25:50.727Z,99.99
2023-03-02T21:28:58.002Z,99.99
2023-03-02T21:32:05.966Z,99.99
2023-03-02T21:35:12.925Z,99.99
2023-03-02T21:38:20.194Z,99.99
2023-03-02T21:41:28.041Z,99.99
2023-03-02T21:44:35.268Z,99.99
2023-03-02T21:47:42.507Z,99.99
2023-03-02T21:50:49.797Z,99.99
2023-03-02T21:53:57.566Z,99.99
2023-03-02T21:57:04.865Z,99.99
2023-03-02T22:00:11.822Z,99.99
2023-03-02T22:03:19.237Z,99.99
2023-03-02T22:06:26.746Z,99.99
2023-03-02T22:09:34.028Z,99.99
2023-03-02T22:12:41.642Z,99.99
2023-03-02T22:15:49.047Z,99.99
2023-03-02T22:18:56.670Z,99.99
2023-03-02T22:22:04.652Z,99.99
2023-03-02T22:25:11.680Z,99.99
2023-03-02T22:28:19.656Z,99.99
2023-03-02T22:31:27.533Z,99.99
2023-03-02T22:34:34.543Z,99.99
2023-03-02T22:37:42.457Z,99.99
2023-03-02T22:40:49.914Z,99.99
2023-03-02T22:43:57.307Z,99.99
2023-03-02T22:47:05.066Z,99.99
2023-03-02T22:50:12.405Z,99.99
2023-03-02T22:53:19.728Z,99.99
2023-03-02T22:56:27.433Z,99.99
2023-03-02T22:59:34.637Z,99.99
2023-03-02T23:02:42.033Z,99.99
2023-03-02T23:05:49.942Z,99.99
2023-03-02T23:08:57.369Z,99.99
2023-03-02T23:12:04.760Z,99.99
2023-03-02T23:15:11.867Z,99.99
2023-03-02T23:18:19.312Z,99.99
2023-03-02T23:21:28.241Z,99.99
2023-03-02T23:24:35.592Z,99.99
2023-03-02T23:27:43.543Z,99.99
2023-03-02T23:30:50.610Z,99.99
2023-03-02T23:33:58.196Z,99.99
2023-03-02T23:37:05.844Z,99.99
2023-03-02T23:40:13.170Z,99.99
2023-03-02T23:43:20.422Z,99.99
2023-03-02T23:46:28.116Z,99.99
2023-03-02T23:49:35.011Z,99.99
2023-03-02T23:52:42.885Z,99.99
2023-03-02T23:55:50.718Z,99.99
2023-03-02T23:58:57.968Z,99.99
